createdAt,value
2022-11-22T00:00:16.421Z,53.19
2022-11-22T00:01:16.382Z,63.77
2022-11-22T00:02:16.433Z,54.16
2022-11-22T00:03:16.366Z,57.97
2022-11-22T00:04:16.363Z,67.28
2022-11-22T00:05:17.336Z,64.57
2022-11-22T00:06:16.318Z,67.80
2022-11-22T00:07:16.343Z,68.75
2022-11-22T00:08:16.396Z,61.02
2022-11-22T00:09:16.338Z,68.56
2022-11-22T00:10:16.333Z,67.03
2022-11-22T00:11:16.287Z,68.25
2022-11-22T00:12:16.287Z,63.83
2022-11-22T00:13:16.300Z,68.62
2022-11-22T00:14:16.255Z,56.57
2022-11-22T00:15:16.264Z,66.09
2022-11-22T00:16:16.232Z,67.31
2022-11-22T00:17:16.216Z,71.68
2022-11-22T00:18:16.224Z,69.36
2022-11-22T00:19:16.283Z,65.03
2022-11-22T00:20:17.203Z,66.58
2022-11-22T00:21:16.199Z,70.27
2022-11-22T00:22:16.238Z,68.23
2022-11-22T00:23:16.163Z,70.80
2022-11-22T00:24:16.159Z,71.22
2022-11-22T00:25:16.134Z,64.06
2022-11-22T00:26:16.131Z,61.62
2022-11-22T00:27:16.103Z,67.50
2022-11-22T00:28:16.100Z,75.32
2022-11-22T00:29:16.100Z,71.58
2022-11-22T00:30:16.101Z,58.99
2022-11-22T00:31:16.092Z,63.16
2022-11-22T00:32:16.066Z,63.78
2022-11-22T00:33:16.031Z,68.93
2022-11-22T00:34:16.019Z,62.59
2022-11-22T00:35:16.008Z,70.05
2022-11-22T00:36:16.007Z,67.25
2022-11-22T00:37:16.004Z,71.53
2022-11-22T00:38:15.989Z,65.81
2022-11-22T00:39:15.980Z,64.48
2022-11-22T00:40:15.951Z,67.58
2022-11-22T00:41:16.024Z,72.62
2022-11-22T00:42:15.944Z,68.27
2022-11-22T00:43:15.932Z,63.87
2022-11-22T00:44:15.911Z,68.10
2022-11-22T00:45:15.964Z,65.72
2022-11-22T00:46:15.947Z,65.27
2022-11-22T00:47:15.892Z,65.71
2022-11-22T00:48:15.883Z,66.77
2022-11-22T00:49:15.864Z,66.96
2022-11-22T00:50:15.857Z,69.04
2022-11-22T00:51:15.821Z,68.11
2022-11-22T00:52:15.807Z,70.63
2022-11-22T00:53:15.859Z,59.02
2022-11-22T00:54:15.793Z,68.98
2022-11-22T00:55:15.813Z,64.09
2022-11-22T00:56:15.794Z,54.84
2022-11-22T00:57:15.764Z,54.07
2022-11-22T00:58:15.761Z,61.60
2022-11-22T00:59:15.820Z,69.77
2022-11-22T01:00:15.739Z,70.34
2022-11-22T01:01:15.796Z,67.63
2022-11-22T01:02:15.709Z,59.48
2022-11-22T01:03:15.716Z,58.06
2022-11-22T01:04:15.757Z,71.99
2022-11-22T01:05:15.705Z,69.51
2022-11-22T01:06:15.661Z,72.35
2022-11-22T01:07:15.748Z,68.99
2022-11-22T01:08:15.657Z,63.32
2022-11-22T01:09:15.635Z,68.70
2022-11-22T01:10:15.689Z,64.88
2022-11-22T01:11:15.612Z,58.40
2022-11-22T01:12:15.593Z,64.38
2022-11-22T01:13:16.601Z,68.91
2022-11-22T01:14:15.574Z,62.75
2022-11-22T01:15:15.592Z,61.81
2022-11-22T01:16:15.553Z,63.25
2022-11-22T01:17:15.593Z,63.02
2022-11-22T01:18:15.573Z,64.57
2022-11-22T01:19:15.516Z,67.16
2022-11-22T01:20:15.513Z,54.37
2022-11-22T01:21:15.569Z,65.23
2022-11-22T01:22:15.505Z,60.63
2022-11-22T01:23:15.530Z,63.63
2022-11-22T01:24:15.493Z,57.58
2022-11-22T01:25:16.233Z,62.12
2022-11-22T01:26:15.472Z,65.16
2022-11-22T01:27:15.449Z,62.87
2022-11-22T01:28:15.454Z,70.09
2022-11-22T01:29:15.435Z,67.25
2022-11-22T01:30:15.442Z,65.34
2022-11-22T01:31:15.438Z,56.01
2022-11-22T01:32:15.414Z,64.08
2022-11-22T01:33:15.382Z,69.03
2022-11-22T01:34:15.401Z,63.39
2022-11-22T01:35:15.406Z,53.37
2022-11-22T01:36:15.390Z,65.09
2022-11-22T01:37:15.378Z,56.79
2022-11-22T01:38:15.355Z,63.42
2022-11-22T01:39:15.378Z,62.88
2022-11-22T01:40:15.329Z,61.95
2022-11-22T01:41:16.243Z,65.76
2022-11-22T01:42:15.322Z,66.56
2022-11-22T01:43:15.298Z,69.01
2022-11-22T01:44:15.646Z,72.28
2022-11-22T01:45:15.288Z,72.53
2022-11-22T01:46:15.231Z,66.94
2022-11-22T01:47:15.290Z,69.29
2022-11-22T01:48:15.279Z,62.32
2022-11-22T01:49:15.235Z,66.42
2022-11-22T01:50:16.283Z,55.34
2022-11-22T01:51:15.204Z,61.45
2022-11-22T01:52:15.203Z,67.90
2022-11-22T01:53:15.172Z,65.19
2022-11-22T01:54:15.191Z,71.76
2022-11-22T01:55:15.174Z,69.25
2022-11-22T01:56:15.151Z,73.24
2022-11-22T01:57:15.128Z,58.64
2022-11-22T01:58:15.163Z,71.27
2022-11-22T01:59:15.152Z,66.95
2022-11-22T02:00:15.156Z,66.21
2022-11-22T02:01:15.141Z,65.65
2022-11-22T02:02:15.095Z,69.80
2022-11-22T02:03:15.103Z,65.42
2022-11-22T02:04:15.066Z,55.40
2022-11-22T02:05:15.121Z,67.92
2022-11-22T02:06:15.036Z,70.33
2022-11-22T02:07:15.090Z,68.34
2022-11-22T02:08:15.039Z,66.33
2022-11-22T02:09:15.051Z,72.23
2022-11-22T02:10:14.992Z,62.90
2022-11-22T02:11:15.029Z,63.57
2022-11-22T02:12:15.000Z,69.90
2022-11-22T02:13:15.016Z,65.21
2022-11-22T02:14:14.984Z,74.78
2022-11-22T02:15:14.921Z,61.29
2022-11-22T02:16:14.942Z,60.78
2022-11-22T02:17:14.967Z,73.79
2022-11-22T02:18:14.895Z,63.80
2022-11-22T02:19:14.895Z,63.35
2022-11-22T02:20:14.916Z,68.28
2022-11-22T02:21:14.904Z,69.59
2022-11-22T02:22:14.856Z,68.12
2022-11-22T02:23:14.852Z,64.78
2022-11-22T02:24:14.985Z,65.89
2022-11-22T02:25:14.841Z,56.63
2022-11-22T02:26:14.853Z,64.52
2022-11-22T02:27:14.844Z,64.42
2022-11-22T02:28:14.834Z,69.76
2022-11-22T02:29:14.781Z,69.06
2022-11-22T02:30:14.817Z,60.72
2022-11-22T02:31:14.768Z,65.09
2022-11-22T02:32:14.747Z,68.51
2022-11-22T02:33:14.761Z,59.77
2022-11-22T02:34:14.870Z,66.58
2022-11-22T02:35:14.751Z,67.40
2022-11-22T02:36:14.755Z,64.38
2022-11-22T02:37:14.681Z,67.63
2022-11-22T02:38:14.713Z,69.09
2022-11-22T02:39:14.702Z,61.29
2022-11-22T02:40:14.693Z,72.41
2022-11-22T02:41:14.674Z,72.81
2022-11-22T02:42:15.202Z,56.12
2022-11-22T02:43:14.618Z,66.83
2022-11-22T02:44:14.650Z,64.77
2022-11-22T02:45:14.657Z,69.79
2022-11-22T02:46:14.639Z,63.65
2022-11-22T02:47:14.606Z,54.64
2022-11-22T02:48:14.579Z,67.84
2022-11-22T02:49:14.660Z,71.62
2022-11-22T02:50:14.590Z,68.94
2022-11-22T02:51:14.583Z,66.32
2022-11-22T02:52:14.575Z,60.55
2022-11-22T02:53:14.550Z,55.63
2022-11-22T02:54:14.542Z,68.29
2022-11-22T02:55:14.518Z,62.28
2022-11-22T02:56:14.541Z,65.10
2022-11-22T02:57:14.518Z,66.54
2022-11-22T02:58:14.467Z,61.10
2022-11-22T02:59:14.472Z,64.44
2022-11-22T03:00:15.112Z,64.49
2022-11-22T03:01:14.509Z,67.25
2022-11-22T03:02:14.467Z,72.57
2022-11-22T03:03:14.438Z,71.24
2022-11-22T03:04:14.542Z,65.58
2022-11-22T03:05:14.438Z,60.07
2022-11-22T03:06:14.486Z,68.14
2022-11-22T03:07:14.419Z,68.43
2022-11-22T03:08:14.401Z,69.89
2022-11-22T03:09:14.379Z,68.77
2022-11-22T03:10:14.360Z,72.47
2022-11-22T03:11:14.333Z,70.92
2022-11-22T03:12:14.352Z,69.74
2022-11-22T03:13:14.373Z,60.67
2022-11-22T03:14:14.324Z,65.24
2022-11-22T03:15:14.308Z,71.16
2022-11-22T03:16:14.315Z,70.00
2022-11-22T03:17:14.279Z,69.75
2022-11-22T03:18:14.471Z,68.61
2022-11-22T03:19:14.251Z,71.53
2022-11-22T03:20:14.283Z,63.68
2022-11-22T03:21:14.241Z,71.44
2022-11-22T03:22:14.252Z,60.56
2022-11-22T03:23:14.199Z,67.34
2022-11-22T03:24:15.192Z,65.98
2022-11-22T03:25:14.188Z,73.90
2022-11-22T03:26:14.203Z,72.32
2022-11-22T03:27:14.207Z,69.41
2022-11-22T03:28:14.176Z,70.10
2022-11-22T03:29:14.183Z,67.91
2022-11-22T03:30:14.148Z,69.91
2022-11-22T03:31:14.204Z,68.61
2022-11-22T03:32:14.131Z,62.42
2022-11-22T03:33:14.119Z,67.64
2022-11-22T03:34:14.104Z,70.55
2022-11-22T03:35:15.101Z,68.15
2022-11-22T03:36:14.088Z,72.50
2022-11-22T03:37:14.105Z,73.00
2022-11-22T03:38:14.065Z,74.10
2022-11-22T03:39:14.059Z,75.03
2022-11-22T03:40:14.042Z,72.11
2022-11-22T03:41:14.084Z,74.22
2022-11-22T03:42:19.698Z,69.91
2022-11-22T03:43:16.053Z,67.42
2022-11-22T03:44:14.018Z,74.13
2022-11-22T03:45:14.015Z,71.93
2022-11-22T03:46:14.000Z,72.76
2022-11-22T03:47:13.981Z,74.68
2022-11-22T03:48:14.012Z,70.18
2022-11-22T03:49:13.993Z,71.52
2022-11-22T03:50:13.950Z,72.54
2022-11-22T03:51:13.934Z,71.93
2022-11-22T03:52:13.933Z,74.63
2022-11-22T03:53:13.949Z,73.61
2022-11-22T03:54:13.889Z,76.22
2022-11-22T03:55:13.891Z,73.39
2022-11-22T03:56:13.888Z,66.01
2022-11-22T03:57:13.885Z,74.67
2022-11-22T03:58:13.854Z,72.71
2022-11-22T03:59:13.856Z,72.91
2022-11-22T04:00:13.854Z,72.54
2022-11-22T04:01:16.817Z,75.71
2022-11-22T04:02:13.878Z,72.21
2022-11-22T04:03:13.822Z,76.48
2022-11-22T04:04:13.805Z,73.72
2022-11-22T04:05:13.802Z,69.68
2022-11-22T04:06:13.833Z,74.34
2022-11-22T04:07:13.824Z,76.10
2022-11-22T04:08:13.730Z,71.93
2022-11-22T04:09:13.770Z,74.02
2022-11-22T04:10:16.480Z,77.03
2022-11-22T04:11:14.704Z,75.18
2022-11-22T04:12:13.708Z,76.94
2022-11-22T04:13:13.724Z,73.21
2022-11-22T04:14:13.690Z,74.07
2022-11-22T04:15:13.741Z,75.69
2022-11-22T04:16:13.698Z,74.22
2022-11-22T04:17:13.713Z,74.43
2022-11-22T04:18:13.619Z,76.78
2022-11-22T04:19:13.643Z,75.13
2022-11-22T04:20:13.636Z,76.36
2022-11-22T04:21:13.618Z,76.10
2022-11-22T04:22:13.620Z,77.07
2022-11-22T04:23:13.632Z,75.28
2022-11-22T04:24:13.593Z,75.48
2022-11-22T04:25:13.638Z,75.33
2022-11-22T04:26:13.544Z,75.09
2022-11-22T04:27:13.615Z,75.11
2022-11-22T04:28:13.559Z,76.71
2022-11-22T04:29:13.519Z,76.31
2022-11-22T04:30:18.936Z,74.31
2022-11-22T04:31:15.577Z,76.58
2022-11-22T04:32:13.508Z,76.71
2022-11-22T04:33:13.487Z,78.54
2022-11-22T04:34:13.474Z,78.59
2022-11-22T04:35:13.461Z,77.38
2022-11-22T04:36:13.679Z,78.15
2022-11-22T04:37:14.455Z,78.18
2022-11-22T04:38:13.448Z,78.31
2022-11-22T04:39:13.449Z,76.67
2022-11-22T04:40:13.417Z,78.21
2022-11-22T04:41:13.381Z,78.92
2022-11-22T04:42:13.391Z,77.36
2022-11-22T04:43:13.375Z,78.50
2022-11-22T04:44:13.364Z,78.45
2022-11-22T04:45:13.403Z,77.80
2022-11-22T04:46:13.356Z,76.89
2022-11-22T04:47:13.340Z,78.45
2022-11-22T04:48:13.344Z,76.46
2022-11-22T04:49:13.316Z,78.79
2022-11-22T04:50:13.299Z,78.64
2022-11-22T04:51:13.316Z,77.95
2022-11-22T04:52:14.195Z,78.44
2022-11-22T04:53:13.252Z,76.45
2022-11-22T04:54:13.281Z,77.26
2022-11-22T04:55:13.281Z,78.40
2022-11-22T04:56:13.244Z,76.89
2022-11-22T04:57:13.209Z,77.95
2022-11-22T04:58:13.254Z,77.52
2022-11-22T04:59:13.223Z,77.50
2022-11-22T05:00:13.194Z,75.85
2022-11-22T05:01:13.277Z,78.55
2022-11-22T05:02:13.176Z,78.94
2022-11-22T05:03:13.227Z,76.36
2022-11-22T05:04:13.159Z,79.01
2022-11-22T05:05:13.122Z,77.75
2022-11-22T05:06:13.144Z,75.70
2022-11-22T05:07:13.153Z,77.31
2022-11-22T05:08:13.135Z,77.62
2022-11-22T05:09:13.116Z,78.03
2022-11-22T05:10:13.185Z,78.11
2022-11-22T05:11:13.665Z,79.73
2022-11-22T05:12:13.082Z,76.99
2022-11-22T05:13:13.101Z,77.84
2022-11-22T05:14:13.071Z,77.59
2022-11-22T05:15:13.090Z,77.49
2022-11-22T05:16:13.129Z,77.43
2022-11-22T05:17:13.915Z,76.39
2022-11-22T05:18:14.030Z,78.53
2022-11-22T05:19:12.998Z,76.72
2022-11-22T05:20:12.985Z,77.45
2022-11-22T05:21:13.000Z,77.79
2022-11-22T05:22:12.958Z,77.17
2022-11-22T05:23:12.969Z,75.17
2022-11-22T05:24:12.935Z,75.86
2022-11-22T05:25:12.918Z,77.68
2022-11-22T05:26:13.638Z,76.56
2022-11-22T05:27:12.919Z,76.81
2022-11-22T05:28:12.914Z,79.28
2022-11-22T05:29:12.876Z,77.41
2022-11-22T05:30:12.861Z,76.24
2022-11-22T05:31:12.867Z,79.08
2022-11-22T05:32:12.874Z,77.77
2022-11-22T05:33:12.839Z,76.87
2022-11-22T05:34:12.858Z,77.77
2022-11-22T05:35:12.819Z,77.45
2022-11-22T05:36:12.815Z,77.87
2022-11-22T05:37:13.819Z,78.27
2022-11-22T05:38:12.810Z,78.99
2022-11-22T05:39:12.931Z,78.29
2022-11-22T05:40:12.801Z,79.13
2022-11-22T05:41:12.766Z,77.96
2022-11-22T05:42:12.744Z,77.85
2022-11-22T05:43:12.718Z,79.23
2022-11-22T05:44:12.714Z,78.63
2022-11-22T05:45:12.786Z,77.06
2022-11-22T05:46:12.686Z,79.81
2022-11-22T05:47:12.677Z,80.99
2022-11-22T05:48:12.660Z,81.20
2022-11-22T05:49:12.705Z,78.55
2022-11-22T05:50:12.670Z,76.80
2022-11-22T05:51:12.656Z,78.91
2022-11-22T05:52:12.621Z,79.05
2022-11-22T05:53:12.630Z,77.81
2022-11-22T05:54:12.628Z,78.04
2022-11-22T05:55:12.610Z,79.51
2022-11-22T05:56:12.610Z,78.06
2022-11-22T05:57:12.577Z,78.42
2022-11-22T05:58:12.541Z,78.31
2022-11-22T05:59:13.546Z,77.50
2022-11-22T06:00:12.547Z,79.35
2022-11-22T06:01:12.537Z,79.32
2022-11-22T06:02:12.604Z,77.15
2022-11-22T06:03:12.705Z,78.29
2022-11-22T06:04:12.507Z,77.07
2022-11-22T06:05:12.497Z,78.21
2022-11-22T06:06:12.495Z,77.52
2022-11-22T06:07:12.494Z,77.95
2022-11-22T06:08:12.534Z,78.79
2022-11-22T06:09:12.514Z,78.87
2022-11-22T06:10:12.491Z,78.99
2022-11-22T06:11:12.524Z,77.44
2022-11-22T06:12:12.406Z,79.55
2022-11-22T06:13:12.436Z,80.04
2022-11-22T06:14:12.686Z,79.61
2022-11-22T06:15:12.392Z,80.60
2022-11-22T06:16:12.415Z,78.89
2022-11-22T06:17:12.428Z,79.34
2022-11-22T06:18:12.366Z,79.82
2022-11-22T06:19:12.364Z,79.87
2022-11-22T06:20:12.387Z,79.72
2022-11-22T06:21:12.468Z,78.42
2022-11-22T06:22:12.371Z,79.68
2022-11-22T06:23:12.320Z,79.84
2022-11-22T06:24:12.288Z,79.70
2022-11-22T06:25:12.299Z,79.51
2022-11-22T06:26:12.298Z,78.37
2022-11-22T06:27:12.308Z,78.33
2022-11-22T06:28:12.342Z,78.30
2022-11-22T06:29:12.307Z,79.34
2022-11-22T06:30:12.243Z,78.69
2022-11-22T06:31:12.219Z,80.71
2022-11-22T06:32:12.209Z,80.07
2022-11-22T06:33:12.225Z,80.95
2022-11-22T06:34:12.263Z,80.26
2022-11-22T06:35:12.305Z,80.17
2022-11-22T06:36:12.263Z,79.16
2022-11-22T06:37:12.231Z,79.11
2022-11-22T06:38:12.140Z,80.47
2022-11-22T06:39:12.141Z,79.82
2022-11-22T06:40:12.132Z,79.37
2022-11-22T06:41:12.130Z,78.15
2022-11-22T06:42:12.113Z,78.51
2022-11-22T06:43:12.125Z,77.74
2022-11-22T06:44:12.076Z,80.03
2022-11-22T06:45:12.096Z,79.85
2022-11-22T06:46:12.103Z,78.82
2022-11-22T06:47:12.085Z,79.61
2022-11-22T06:48:12.054Z,79.44
2022-11-22T06:49:12.039Z,79.96
2022-11-22T06:50:15.131Z,78.76
2022-11-22T06:51:13.004Z,78.68
2022-11-22T06:52:12.019Z,78.72
2022-11-22T06:53:32.362Z,80.40
2022-11-22T06:54:14.092Z,78.06
2022-11-22T06:55:34.672Z,77.58
2022-11-22T06:56:13.955Z,78.76
2022-11-22T06:57:11.964Z,79.94
2022-11-22T06:58:11.987Z,79.78
2022-11-22T06:59:11.953Z,78.26
2022-11-22T07:00:11.960Z,79.93
2022-11-22T07:01:11.947Z,78.71
2022-11-22T07:02:11.936Z,77.48
2022-11-22T07:03:11.937Z,79.15
2022-11-22T07:04:11.864Z,79.35
2022-11-22T07:05:25.706Z,76.64
2022-11-22T07:06:13.836Z,79.85
2022-11-22T07:07:11.877Z,80.78
2022-11-22T07:08:14.001Z,78.94
2022-11-22T07:09:12.868Z,77.78
2022-11-22T07:10:11.804Z,80.82
2022-11-22T07:11:11.800Z,78.80
2022-11-22T07:12:11.797Z,79.94
2022-11-22T07:13:11.809Z,78.59
2022-11-22T07:14:11.778Z,79.33
2022-11-22T07:15:11.781Z,78.50
2022-11-22T07:16:11.714Z,79.08
2022-11-22T07:17:11.763Z,78.81
2022-11-22T07:18:11.781Z,78.49
2022-11-22T07:19:11.699Z,79.50
2022-11-22T07:20:11.761Z,76.90
2022-11-22T07:21:13.563Z,78.47
2022-11-22T07:22:12.720Z,77.98
2022-11-22T07:23:11.665Z,78.26
2022-11-22T07:24:11.666Z,77.11
2022-11-22T07:25:11.664Z,78.78
2022-11-22T07:26:11.748Z,77.96
2022-11-22T07:27:11.726Z,78.12
2022-11-22T07:28:11.649Z,78.50
2022-11-22T07:29:11.659Z,75.97
2022-11-22T07:30:11.599Z,76.54
2022-11-22T07:31:11.591Z,76.66
2022-11-22T07:32:11.566Z,76.64
2022-11-22T07:33:11.562Z,78.01
2022-11-22T07:34:11.569Z,78.07
2022-11-22T07:35:11.603Z,76.89
2022-11-22T07:36:11.527Z,77.85
2022-11-22T07:37:11.506Z,77.85
2022-11-22T07:38:11.515Z,76.93
2022-11-22T07:39:11.515Z,77.11
2022-11-22T07:40:11.479Z,76.70
2022-11-22T07:41:11.485Z,78.04
2022-11-22T07:42:11.532Z,78.88
2022-11-22T07:43:11.447Z,77.24
2022-11-22T07:44:11.546Z,77.17
2022-11-22T07:45:11.459Z,76.79
2022-11-22T07:46:11.457Z,78.84
2022-11-22T07:47:11.447Z,78.72
2022-11-22T07:48:11.402Z,78.27
2022-11-22T07:49:11.393Z,79.27
2022-11-22T07:50:11.409Z,78.00
2022-11-22T07:51:11.383Z,77.94
2022-11-22T07:52:11.386Z,80.48
2022-11-22T07:53:11.367Z,79.60
2022-11-22T07:54:11.334Z,77.80
2022-11-22T07:55:14.244Z,79.32
2022-11-22T07:56:12.459Z,78.26
2022-11-22T07:57:11.323Z,77.26
2022-11-22T07:58:11.286Z,78.48
2022-11-22T07:59:11.268Z,77.87
2022-11-22T08:00:11.300Z,78.06
2022-11-22T08:01:11.362Z,78.68
2022-11-22T08:02:11.372Z,78.29
2022-11-22T08:03:15.618Z,76.60
2022-11-22T08:04:13.240Z,78.60
2022-11-22T08:05:11.213Z,75.32
2022-11-22T08:06:11.220Z,79.69
2022-11-22T08:07:11.281Z,75.96
2022-11-22T08:08:11.277Z,76.92
2022-11-22T08:09:11.784Z,77.43
2022-11-22T08:10:11.176Z,76.38
2022-11-22T08:11:11.266Z,76.12
2022-11-22T08:12:11.264Z,75.78
2022-11-22T08:13:11.135Z,76.95
2022-11-22T08:14:11.148Z,76.04
2022-11-22T08:15:11.113Z,78.27
2022-11-22T08:16:11.191Z,77.83
2022-11-22T08:17:11.092Z,77.11
2022-11-22T08:18:11.097Z,78.53
2022-11-22T08:19:11.048Z,77.95
2022-11-22T08:20:11.353Z,77.80
2022-11-22T08:21:11.169Z,77.41
2022-11-22T08:22:11.089Z,76.81
2022-11-22T08:23:11.078Z,77.43
2022-11-22T08:24:11.314Z,76.94
2022-11-22T08:25:11.056Z,77.41
2022-11-22T08:26:11.004Z,77.73
2022-11-22T08:27:11.125Z,78.06
2022-11-22T08:28:11.000Z,77.62
2022-11-22T08:29:14.074Z,76.74
2022-11-22T08:30:12.020Z,79.61
2022-11-22T08:31:10.949Z,77.91
2022-11-22T08:32:10.918Z,76.72
2022-11-22T08:33:10.932Z,79.87
2022-11-22T08:34:10.923Z,77.37
2022-11-22T08:35:11.014Z,78.81
2022-11-22T08:36:10.923Z,77.41
2022-11-22T08:37:10.876Z,77.08
2022-11-22T08:38:10.857Z,77.65
2022-11-22T08:39:10.853Z,80.22
2022-11-22T08:40:10.920Z,78.48
2022-11-22T08:41:12.905Z,76.95
2022-11-22T08:42:10.845Z,78.11
2022-11-22T08:43:10.793Z,79.46
2022-11-22T08:44:10.833Z,79.33
2022-11-22T08:45:10.833Z,76.81
2022-11-22T08:46:10.820Z,77.85
2022-11-22T08:47:10.778Z,76.11
2022-11-22T08:48:10.762Z,75.99
2022-11-22T08:49:10.766Z,78.31
2022-11-22T08:50:10.705Z,79.30
2022-11-22T08:51:10.762Z,77.14
2022-11-22T08:52:10.716Z,78.11
2022-11-22T08:53:10.673Z,79.43
2022-11-22T08:54:11.699Z,78.26
2022-11-22T08:55:10.758Z,77.43
2022-11-22T08:56:10.771Z,77.88
2022-11-22T08:57:10.733Z,75.93
2022-11-22T08:58:10.702Z,76.63
2022-11-22T08:59:10.700Z,76.63
2022-11-22T09:00:10.618Z,77.04
2022-11-22T09:01:10.713Z,76.82
2022-11-22T09:02:10.634Z,80.33
2022-11-22T09:03:10.617Z,79.15
2022-11-22T09:04:10.555Z,77.84
2022-11-22T09:05:10.559Z,79.16
2022-11-22T09:10:12.633Z,78.26
2022-11-22T09:11:10.499Z,77.27
2022-11-22T09:12:10.562Z,78.30
2022-11-22T09:13:10.510Z,75.09
2022-11-22T09:14:10.482Z,78.49
2022-11-22T09:15:10.451Z,75.85
2022-11-22T09:16:10.426Z,76.86
2022-11-22T09:17:16.144Z,77.33
2022-11-22T09:18:12.455Z,77.58
2022-11-22T09:19:10.386Z,78.01
2022-11-22T09:20:10.378Z,78.47
2022-11-22T09:21:10.355Z,77.37
2022-11-22T09:22:10.352Z,78.41
2022-11-22T09:23:10.396Z,77.60
2022-11-22T09:24:10.351Z,79.13
2022-11-22T09:25:10.374Z,77.52
2022-11-22T09:26:10.311Z,77.67
2022-11-22T09:27:10.279Z,77.81
2022-11-22T09:28:10.350Z,78.51
2022-11-22T09:29:10.301Z,77.27
2022-11-22T09:30:10.243Z,78.36
2022-11-22T09:31:10.291Z,76.97
2022-11-22T09:32:10.227Z,77.16
2022-11-22T09:33:10.234Z,79.25
2022-11-22T09:34:10.235Z,77.45
2022-11-22T09:35:10.227Z,78.93
2022-11-22T09:36:10.247Z,79.24
2022-11-22T09:37:10.186Z,78.42
2022-11-22T09:38:10.161Z,77.96
2022-11-22T09:39:10.159Z,77.08
2022-11-22T09:40:10.198Z,77.13
2022-11-22T09:41:10.112Z,75.29
2022-11-22T09:42:10.176Z,78.11
2022-11-22T09:43:10.148Z,77.58
2022-11-22T09:44:10.190Z,79.24
2022-11-22T09:45:10.132Z,78.08
2022-11-22T09:46:10.087Z,78.00
2022-11-22T09:47:10.064Z,78.33
2022-11-22T09:48:10.284Z,73.60
2022-11-22T09:49:10.073Z,78.09
2022-11-22T09:50:10.046Z,78.08
2022-11-22T09:51:10.031Z,76.60
2022-11-22T09:52:10.030Z,77.03
2022-11-22T09:53:10.010Z,75.70
2022-11-22T09:54:09.997Z,77.22
2022-11-22T09:55:09.971Z,76.46
2022-11-22T09:56:09.989Z,77.86
2022-11-22T09:57:09.967Z,76.62
2022-11-22T09:58:09.967Z,77.41
2022-11-22T09:59:09.959Z,74.41
2022-11-22T10:00:10.013Z,77.33
2022-11-22T10:01:09.981Z,76.37
2022-11-22T10:02:18.300Z,77.22
2022-11-22T10:03:11.924Z,77.81
2022-11-22T10:04:10.002Z,76.28
2022-11-22T10:05:09.869Z,76.26
2022-11-22T10:06:09.860Z,78.82
2022-11-22T10:07:09.939Z,75.54
2022-11-22T10:08:09.842Z,78.47
2022-11-22T10:09:09.921Z,77.36
2022-11-22T10:10:09.856Z,80.28
2022-11-22T10:11:09.817Z,77.50
2022-11-22T10:12:09.779Z,76.73
2022-11-22T10:13:09.792Z,77.24
2022-11-22T10:14:09.810Z,76.30
2022-11-22T10:15:09.956Z,75.18
2022-11-22T10:16:09.805Z,77.62
2022-11-22T10:17:09.797Z,77.07
2022-11-22T10:18:09.804Z,76.72
2022-11-22T10:19:09.749Z,77.33
2022-11-22T10:20:09.694Z,77.50
2022-11-22T10:21:09.698Z,76.97
2022-11-22T10:22:09.737Z,76.84
2022-11-22T10:23:09.837Z,79.01
2022-11-22T10:24:09.673Z,78.61
2022-11-22T10:25:09.662Z,78.32
2022-11-22T10:26:09.881Z,76.27
2022-11-22T10:27:09.642Z,77.50
2022-11-22T10:28:09.674Z,77.01
2022-11-22T10:29:09.586Z,76.41
2022-11-22T10:30:09.594Z,78.52
2022-11-22T10:31:09.570Z,78.62
2022-11-22T10:32:09.709Z,77.55
2022-11-22T10:33:09.562Z,77.92
2022-11-22T10:34:09.621Z,76.59
2022-11-22T10:35:09.626Z,76.39
2022-11-22T10:36:10.522Z,76.37
2022-11-22T10:37:09.523Z,76.82
2022-11-22T10:38:09.563Z,76.58
2022-11-22T10:39:09.547Z,77.59
2022-11-22T10:40:09.510Z,76.17
2022-11-22T10:41:09.499Z,77.96
2022-11-22T10:42:09.528Z,79.36
2022-11-22T10:43:09.479Z,77.88
2022-11-22T10:44:10.190Z,77.04
2022-11-22T10:45:09.468Z,76.76
2022-11-22T10:46:10.211Z,76.34
2022-11-22T10:47:09.472Z,76.97
2022-11-22T10:48:09.616Z,77.45
2022-11-22T10:49:09.408Z,76.84
2022-11-22T10:50:10.122Z,77.74
2022-11-22T10:51:10.143Z,80.58
2022-11-22T10:52:10.151Z,76.22
2022-11-22T10:53:09.478Z,77.55
2022-11-22T10:54:10.139Z,75.16
2022-11-22T10:55:10.101Z,77.89
2022-11-22T10:56:09.465Z,76.39
2022-11-22T10:57:09.331Z,78.40
2022-11-22T10:58:09.424Z,78.09
2022-11-22T10:59:09.393Z,78.03
2022-11-22T11:00:09.556Z,77.60
2022-11-22T11:01:09.290Z,76.92
2022-11-22T11:02:09.369Z,78.87
2022-11-22T11:03:09.251Z,77.03
2022-11-22T11:04:09.329Z,77.43
2022-11-22T11:05:09.277Z,77.69
2022-11-22T11:06:43.151Z,76.48
2022-11-22T11:07:12.735Z,75.43
2022-11-22T11:08:39.242Z,76.88
2022-11-22T11:10:13.013Z,79.26
2022-11-22T11:11:11.213Z,78.95
2022-11-22T11:12:09.167Z,77.46
2022-11-22T11:13:09.169Z,75.64
2022-11-22T11:14:09.185Z,77.43
2022-11-22T11:15:09.184Z,76.07
2022-11-22T11:16:09.189Z,77.31
2022-11-22T11:17:09.124Z,77.49
2022-11-22T11:18:09.084Z,78.68
2022-11-22T11:19:09.126Z,77.03
2022-11-22T11:20:09.154Z,75.48
2022-11-22T11:21:09.176Z,77.58
2022-11-22T11:22:09.150Z,77.08
2022-11-22T11:23:16.603Z,74.80
2022-11-22T11:24:11.128Z,77.37
2022-11-22T11:25:09.074Z,76.50
2022-11-22T11:26:09.045Z,77.30
2022-11-22T11:27:09.146Z,78.33
2022-11-22T11:28:08.997Z,77.04
2022-11-22T11:29:08.989Z,78.41
2022-11-22T11:30:08.951Z,78.33
2022-11-22T11:31:08.949Z,76.52
2022-11-22T11:32:08.906Z,77.85
2022-11-22T11:33:08.905Z,77.46
2022-11-22T11:34:08.913Z,78.75
2022-11-22T11:35:08.905Z,78.55
2022-11-22T11:36:08.949Z,75.13
2022-11-22T11:37:08.869Z,78.29
2022-11-22T11:38:08.869Z,78.14
2022-11-22T11:39:08.877Z,74.56
2022-11-22T11:40:08.802Z,78.41
2022-11-22T11:41:08.878Z,75.83
2022-11-22T11:42:08.825Z,79.02
2022-11-22T11:43:08.792Z,78.22
2022-11-22T11:44:08.823Z,77.00
2022-11-22T11:45:08.810Z,78.65
2022-11-22T11:46:08.774Z,78.45
2022-11-22T11:47:08.750Z,77.69
2022-11-22T11:48:08.819Z,77.63
2022-11-22T11:49:08.746Z,77.81
2022-11-22T11:50:08.715Z,77.36
2022-11-22T11:51:08.746Z,80.19
2022-11-22T11:52:08.830Z,78.50
2022-11-22T11:53:08.783Z,77.64
2022-11-22T11:54:08.683Z,78.85
2022-11-22T11:55:08.681Z,78.43
2022-11-22T11:56:08.658Z,77.29
2022-11-22T11:57:08.675Z,77.68
2022-11-22T11:58:11.205Z,77.88
2022-11-22T11:59:08.660Z,78.39
2022-11-22T12:00:08.610Z,79.28
2022-11-22T12:01:08.686Z,79.38
2022-11-22T12:02:08.690Z,78.81
2022-11-22T12:03:08.554Z,76.67
2022-11-22T12:04:08.691Z,76.65
2022-11-22T12:05:08.586Z,78.75
2022-11-22T12:06:08.564Z,78.80
2022-11-22T12:07:08.609Z,78.47
2022-11-22T12:08:08.623Z,75.97
2022-11-22T12:09:08.518Z,78.48
2022-11-22T12:10:09.012Z,78.02
2022-11-22T12:11:08.610Z,78.53
2022-11-22T12:12:08.562Z,76.49
2022-11-22T12:13:08.498Z,76.39
2022-11-22T12:14:20.108Z,78.01
2022-11-22T12:15:11.831Z,78.04
2022-11-22T12:16:09.473Z,79.31
2022-11-22T12:17:08.495Z,77.94
2022-11-22T12:18:08.445Z,76.19
2022-11-22T12:19:08.370Z,78.48
2022-11-22T12:20:08.400Z,76.10
2022-11-22T12:21:08.363Z,78.28
2022-11-22T12:22:08.418Z,78.73
2022-11-22T12:23:08.370Z,78.44
2022-11-22T12:24:40.295Z,79.96
2022-11-22T12:25:32.131Z,77.77
2022-11-22T12:26:10.347Z,78.00
2022-11-22T12:27:08.323Z,80.09
2022-11-22T12:28:08.312Z,79.83
2022-11-22T12:29:08.319Z,79.78
2022-11-22T12:30:08.274Z,77.63
2022-11-22T12:31:14.819Z,78.82
2022-11-22T12:32:10.340Z,79.72
2022-11-22T12:33:08.317Z,79.44
2022-11-22T12:34:08.288Z,77.21
2022-11-22T12:35:08.244Z,78.80
2022-11-22T12:36:08.216Z,78.16
2022-11-22T12:37:08.266Z,78.50
2022-11-22T12:38:08.195Z,78.15
2022-11-22T12:39:08.992Z,79.94
2022-11-22T12:40:08.254Z,79.92
2022-11-22T12:41:08.992Z,79.94
2022-11-22T12:42:08.129Z,76.99
2022-11-22T12:43:08.152Z,78.94
2022-11-22T12:44:08.154Z,78.37
2022-11-22T12:45:08.121Z,79.51
2022-11-22T12:46:08.104Z,79.23
2022-11-22T12:47:08.512Z,78.46
2022-11-22T12:48:08.057Z,78.94
2022-11-22T12:49:08.300Z,79.18
2022-11-22T12:50:08.104Z,77.52
2022-11-22T12:51:08.577Z,78.35
2022-11-22T12:52:08.066Z,79.29
2022-11-22T12:53:08.040Z,78.08
2022-11-22T12:54:08.024Z,79.74
2022-11-22T12:55:08.027Z,78.04
2022-11-22T12:56:08.085Z,78.35
2022-11-22T12:57:08.006Z,76.84